Terminal Aerodrome Forecast
Issued by NWS

Home | Current Version | Previous Version | Text Only | Print | Product List | Glossary On
Versions: 1 2 3 4 5 6 7 8 9 10 11 12 13 14 15
000
FTUS42 KTAE 290520
TAFVLD
TAF
KVLD 290520Z 2906/3006 00000KT P6SM SCT090
      TEMPO 2907/2911 BKN070
     FM291400 05006KT P6SM SCT070
     FM300100 00000KT P6SM SKC=

USA.gov is the U.S. government's official web portal to all federal, state and local government web resources and services.